< < Back
Terminal Aerodrome Forecast


Current Version              Previous Versions:   1  2  3  4  5  6  7  8  9  

Terminal Aerodrome Forecast

257
FTUS42 KFFC 241734
TAFMCN
TAF
KMCN 241734Z 2418/2518 02004KT P6SM SCT060
     FM250000 09003KT P6SM FEW045
     FM250200 VRB03KT P6SM FEW250
     FM251600 08005KT P6SM FEW040=



Latest METAR

136
SAUS80 KWBC 250700
MTRMCN
METAR KMCN 250653Z AUTO 00000KT 10SM CLR 22/20 A3004 RMK AO2 SLP167
T02170200


USA.gov is the U.S. government's official web portal to all federal, state and local government web resources and services.